createdAt,value
2022-09-28T00:00:56.563Z,11.57
2022-09-28T00:02:28.626Z,11.55
2022-09-28T00:04:00.641Z,11.53
2022-09-28T00:05:32.746Z,11.51
2022-09-28T00:07:04.193Z,11.48
2022-09-28T00:08:36.013Z,11.49
2022-09-28T00:10:08.157Z,11.46
2022-09-28T00:11:40.033Z,11.48
2022-09-28T00:13:12.878Z,11.51
2022-09-28T00:14:44.776Z,11.53
2022-09-28T00:16:17.543Z,11.54
2022-09-28T00:17:48.992Z,11.53
2022-09-28T00:19:20.462Z,11.52
2022-09-28T00:20:59.477Z,11.48
2022-09-28T00:22:31.117Z,11.45
2022-09-28T00:24:12.488Z,11.43
2022-09-28T00:25:43.904Z,11.44
2022-09-28T00:27:15.340Z,11.43
2022-09-28T00:28:50.883Z,11.42
2022-09-28T00:30:22.501Z,11.41
2022-09-28T00:31:59.708Z,11.38
2022-09-28T00:33:31.321Z,11.38
2022-09-28T00:35:02.777Z,11.39
2022-09-28T00:36:34.832Z,11.41
2022-09-28T00:38:09.217Z,11.41
2022-09-28T00:39:44.295Z,11.42
2022-09-28T00:41:16.342Z,11.41
2022-09-28T00:42:47.798Z,11.47
2022-09-28T00:44:43.287Z,11.50
2022-09-28T00:46:17.836Z,11.53
2022-09-28T00:47:51.913Z,11.51
2022-09-28T00:49:28.654Z,11.50
2022-09-28T00:51:02.152Z,11.48
2022-09-28T00:52:36.070Z,11.47
2022-09-28T00:54:08.732Z,11.33
2022-09-28T00:55:43.062Z,11.26
2022-09-28T00:57:15.339Z,11.24
2022-09-28T00:58:48.367Z,11.27
2022-09-28T01:00:19.825Z,11.32
2022-09-28T01:01:52.862Z,11.34
2022-09-28T01:03:24.497Z,11.35
2022-09-28T01:04:57.639Z,11.37
2022-09-28T01:06:31.025Z,11.37
2022-09-28T01:08:03.222Z,11.28
2022-09-28T01:09:36.590Z,11.08
2022-09-28T01:11:08.587Z,11.04
2022-09-28T01:12:40.028Z,11.01
2022-09-28T01:14:14.844Z,11.01
2022-09-28T01:15:53.263Z,11.05
2022-09-28T01:17:30.468Z,11.06
2022-09-28T01:19:12.760Z,11.12
2022-09-28T01:20:59.152Z,11.19
2022-09-28T01:22:35.004Z,11.25
2022-09-28T01:24:19.712Z,11.27
2022-09-28T01:25:53.777Z,11.28
2022-09-28T01:27:28.502Z,11.28
2022-09-28T01:29:03.160Z,11.30
2022-09-28T01:30:41.172Z,11.31
2022-09-28T01:32:16.648Z,11.30
2022-09-28T01:33:50.174Z,11.29
2022-09-28T01:35:24.334Z,11.32
2022-09-28T01:36:57.962Z,11.30
2022-09-28T01:38:31.590Z,11.29
2022-09-28T01:40:05.200Z,11.31
2022-09-28T01:41:40.232Z,11.27
2022-09-28T01:43:16.861Z,11.27
2022-09-28T01:44:50.506Z,11.24
2022-09-28T01:46:24.397Z,11.21
2022-09-28T01:47:57.904Z,11.19
2022-09-28T01:49:34.218Z,11.19
2022-09-28T01:51:10.391Z,11.21
2022-09-28T01:52:45.342Z,11.21
2022-09-28T01:54:19.926Z,11.23
2022-09-28T01:55:55.336Z,11.24
2022-09-28T01:57:31.792Z,11.26
2022-09-28T01:59:07.458Z,11.24
2022-09-28T02:00:41.707Z,11.25
2022-09-28T02:02:18.586Z,11.25
2022-09-28T02:03:53.268Z,11.24
2022-09-28T02:05:27.768Z,11.26
2022-09-28T02:07:02.494Z,11.29
2022-09-28T02:08:36.495Z,11.31
2022-09-28T02:10:10.919Z,11.31
2022-09-28T02:11:44.967Z,11.30
2022-09-28T02:13:19.647Z,11.29
2022-09-28T02:14:54.552Z,11.30
2022-09-28T02:16:29.797Z,11.31
2022-09-28T02:18:01.576Z,11.29
2022-09-28T02:19:33.325Z,11.29
2022-09-28T02:21:08.852Z,11.26
2022-09-28T02:22:43.739Z,11.21
2022-09-28T02:24:21.209Z,11.16
2022-09-28T02:25:55.860Z,11.15
2022-09-28T02:27:34.159Z,11.14
2022-09-28T02:29:05.664Z,11.14
2022-09-28T02:30:39.414Z,11.17
2022-09-28T02:32:11.124Z,11.18
2022-09-28T02:33:43.963Z,11.17
2022-09-28T02:35:17.524Z,11.15
2022-09-28T02:36:49.471Z,11.12
2022-09-28T02:38:21.032Z,11.12
2022-09-28T02:39:52.597Z,11.15
2022-09-28T02:41:33.717Z,11.17
2022-09-28T02:43:11.391Z,11.19
2022-09-28T02:44:49.214Z,11.21
2022-09-28T02:46:27.045Z,11.25
2022-09-28T02:48:08.055Z,11.27
2022-09-28T02:49:43.769Z,11.27
2022-09-28T02:51:20.626Z,11.31
2022-09-28T02:53:07.981Z,11.34
2022-09-28T02:54:59.256Z,11.32
2022-09-28T02:56:38.163Z,11.29
2022-09-28T02:58:18.836Z,11.27
2022-09-28T02:59:55.145Z,11.26
2022-09-28T03:01:33.896Z,11.32
2022-09-28T03:03:09.376Z,11.30
2022-09-28T03:04:44.600Z,11.24
2022-09-28T03:06:27.274Z,11.26
2022-09-28T03:07:59.783Z,11.28
2022-09-28T03:09:34.263Z,11.30
2022-09-28T03:11:09.308Z,11.31
2022-09-28T03:12:41.407Z,11.37
2022-09-28T03:14:13.353Z,11.44
2022-09-28T03:15:52.154Z,11.49
2022-09-28T03:17:25.038Z,11.56
2022-09-28T03:18:56.757Z,11.58
2022-09-28T03:20:29.220Z,11.62
2022-09-28T03:22:01.642Z,11.60
2022-09-28T03:23:33.331Z,11.61
2022-09-28T03:25:07.380Z,11.57
2022-09-28T03:26:40.196Z,11.58
2022-09-28T03:28:11.790Z,11.59
2022-09-28T03:29:45.376Z,11.57
2022-09-28T03:31:16.859Z,11.49
2022-09-28T03:32:56.357Z,11.51
2022-09-28T03:34:28.060Z,11.53
2022-09-28T03:35:59.646Z,11.56
2022-09-28T03:37:31.259Z,11.60
2022-09-28T03:39:03.009Z,11.64
2022-09-28T03:40:34.541Z,11.68
2022-09-28T03:42:06.159Z,11.73
2022-09-28T03:43:40.108Z,11.75
2022-09-28T03:45:11.645Z,11.74
2022-09-28T03:46:43.177Z,11.60
2022-09-28T03:48:19.500Z,11.39
2022-09-28T03:49:53.200Z,11.39
2022-09-28T03:51:24.891Z,11.37
2022-09-28T03:53:02.153Z,11.36
2022-09-28T03:54:33.594Z,11.32
2022-09-28T03:56:05.855Z,11.31
2022-09-28T03:57:37.940Z,11.11
2022-09-28T03:59:09.400Z,11.15
2022-09-28T04:00:41.563Z,11.25
2022-09-28T04:02:13.237Z,11.30
2022-09-28T04:03:53.044Z,11.33
2022-09-28T04:05:24.557Z,11.30
2022-09-28T04:06:56.180Z,11.18
2022-09-28T04:08:29.180Z,11.13
2022-09-28T04:10:00.662Z,11.13
2022-09-28T04:11:42.976Z,11.09
2022-09-28T04:13:25.308Z,10.98
2022-09-28T04:14:56.832Z,10.94
2022-09-28T04:16:28.366Z,10.91
2022-09-28T04:18:09.271Z,10.95
2022-09-28T04:19:59.170Z,11.01
2022-09-28T04:21:42.105Z,11.04
2022-09-28T04:23:17.218Z,11.10
2022-09-28T04:24:48.698Z,11.13
2022-09-28T04:26:21.516Z,11.12
2022-09-28T04:28:11.347Z,11.10
2022-09-28T04:29:44.085Z,11.10
2022-09-28T04:31:20.328Z,11.10
2022-09-28T04:32:51.864Z,11.08
2022-09-28T04:34:23.457Z,11.05
2022-09-28T04:35:56.380Z,10.91
2022-09-28T04:37:27.840Z,10.92
2022-09-28T04:39:00.012Z,10.93
2022-09-28T04:40:33.187Z,10.92
2022-09-28T04:42:05.511Z,11.01
2022-09-28T04:43:37.056Z,11.12
2022-09-28T04:45:09.221Z,11.21
2022-09-28T04:46:43.767Z,11.30
2022-09-28T04:48:30.446Z,11.37
2022-09-28T04:50:20.768Z,11.41
2022-09-28T04:52:18.321Z,11.43
2022-09-28T04:53:52.980Z,11.41
2022-09-28T04:55:25.128Z,11.37
2022-09-28T04:56:57.092Z,11.40
2022-09-28T04:58:29.506Z,11.46
2022-09-28T05:00:01.113Z,11.44
2022-09-28T05:01:34.213Z,11.36
2022-09-28T05:03:24.246Z,11.24
2022-09-28T05:05:34.111Z,11.26
2022-09-28T05:07:25.298Z,11.28
2022-09-28T05:08:57.481Z,11.31
2022-09-28T05:10:28.927Z,11.33
2022-09-28T05:12:00.688Z,11.38
2022-09-28T05:13:35.749Z,11.37
2022-09-28T05:15:07.526Z,11.40
2022-09-28T05:16:39.155Z,11.43
2022-09-28T05:18:29.052Z,11.50
2022-09-28T05:20:09.003Z,11.53
2022-09-28T05:21:43.067Z,11.55
2022-09-28T05:23:16.203Z,11.55
2022-09-28T05:24:47.878Z,11.56
2022-09-28T05:26:19.656Z,11.58
2022-09-28T05:27:57.042Z,11.62
2022-09-28T05:29:42.892Z,11.59
2022-09-28T05:31:34.346Z,11.60
2022-09-28T05:33:19.502Z,11.58
2022-09-28T05:35:01.211Z,11.55
2022-09-28T05:36:42.750Z,11.54
2022-09-28T05:38:14.289Z,11.59
2022-09-28T05:39:47.087Z,11.63
2022-09-28T05:41:18.562Z,11.65
2022-09-28T05:42:50.381Z,11.69
2022-09-28T05:44:26.488Z,11.72
2022-09-28T05:46:00.032Z,11.74
2022-09-28T05:47:32.220Z,11.76
2022-09-28T05:49:03.746Z,11.71
2022-09-28T05:50:35.352Z,11.65
2022-09-28T05:52:06.894Z,11.58
2022-09-28T05:53:42.136Z,11.51
2022-09-28T05:55:15.443Z,11.50
2022-09-28T05:56:46.937Z,11.48
2022-09-28T05:58:18.454Z,11.52
2022-09-28T05:59:49.911Z,11.55
2022-09-28T06:01:21.590Z,11.55
2022-09-28T06:02:57.804Z,11.60
2022-09-28T06:04:29.415Z,11.63
2022-09-28T06:06:02.394Z,11.71
2022-09-28T06:07:35.091Z,11.78
2022-09-28T06:09:06.559Z,11.81
2022-09-28T06:11:00.608Z,11.87
2022-09-28T06:12:33.564Z,11.80
2022-09-28T06:14:13.641Z,11.72
2022-09-28T06:15:46.343Z,11.72
2022-09-28T06:17:18.724Z,11.75
2022-09-28T06:18:56.468Z,11.77
2022-09-28T06:20:59.955Z,11.65
2022-09-28T06:22:36.794Z,11.69
2022-09-28T06:24:10.993Z,11.72
2022-09-28T06:25:42.690Z,11.66
2022-09-28T06:27:15.646Z,11.58
2022-09-28T06:28:47.159Z,11.48
2022-09-28T06:30:18.687Z,11.50
2022-09-28T06:31:50.179Z,11.57
2022-09-28T06:33:22.476Z,11.60
2022-09-28T06:34:56.370Z,11.62
2022-09-28T06:36:31.256Z,11.70
2022-09-28T06:38:03.206Z,11.61
2022-09-28T06:39:35.192Z,11.57
2022-09-28T06:41:06.937Z,11.60
2022-09-28T06:42:39.877Z,11.53
2022-09-28T06:44:29.123Z,11.50
2022-09-28T06:46:27.818Z,11.48
2022-09-28T06:48:19.880Z,11.44
2022-09-28T06:49:55.376Z,11.33
2022-09-28T06:51:45.890Z,11.41
2022-09-28T06:53:27.465Z,11.38
2022-09-28T06:55:21.993Z,11.49
2022-09-28T06:56:58.538Z,11.53
2022-09-28T06:58:32.255Z,11.61
2022-09-28T07:00:04.800Z,11.58
2022-09-28T07:01:36.469Z,11.61
2022-09-28T07:03:30.817Z,11.60
2022-09-28T07:05:26.903Z,11.65
2022-09-28T07:07:17.109Z,11.60
2022-09-28T07:08:56.134Z,11.66
2022-09-28T07:10:49.007Z,11.81
2022-09-28T07:12:27.630Z,11.80
2022-09-28T07:14:12.437Z,11.78
2022-09-28T07:15:45.753Z,11.76
2022-09-28T07:17:19.114Z,11.84
2022-09-28T07:18:50.610Z,11.88
2022-09-28T07:20:22.076Z,11.79
2022-09-28T07:22:03.845Z,11.85
2022-09-28T07:23:49.157Z,11.92
2022-09-28T07:25:30.224Z,11.99
2022-09-28T07:27:32.153Z,11.90
2022-09-28T07:29:30.946Z,11.95
2022-09-28T07:31:25.180Z,11.89
2022-09-28T07:33:32.504Z,11.96
2022-09-28T07:35:19.348Z,12.07
2022-09-28T07:36:57.325Z,12.17
2022-09-28T07:38:28.773Z,12.30
2022-09-28T07:40:19.890Z,12.42
2022-09-28T07:41:52.689Z,12.57
2022-09-28T07:43:26.510Z,12.62
2022-09-28T07:44:59.495Z,12.76
2022-09-28T07:46:31.513Z,12.85
2022-09-28T07:48:07.696Z,12.89
2022-09-28T07:49:54.983Z,12.90
2022-09-28T07:51:53.473Z,12.99
2022-09-28T07:53:34.166Z,13.09
2022-09-28T07:55:28.951Z,13.08
2022-09-28T07:57:12.924Z,12.91
2022-09-28T07:59:04.751Z,12.85
2022-09-28T08:00:48.316Z,12.78
2022-09-28T08:02:21.214Z,12.71
2022-09-28T08:03:56.236Z,12.66
2022-09-28T08:05:31.968Z,12.63
2022-09-28T08:07:03.617Z,12.57
2022-09-28T08:08:36.040Z,12.58
2022-09-28T08:10:08.138Z,12.65
2022-09-28T08:11:59.529Z,12.72
2022-09-28T08:13:52.777Z,12.55
2022-09-28T08:15:44.360Z,12.56
2022-09-28T08:17:46.088Z,12.38
2022-09-28T08:19:17.762Z,12.39
2022-09-28T08:21:10.209Z,12.42
2022-09-28T08:22:41.719Z,12.54
2022-09-28T08:24:14.446Z,12.59
2022-09-28T08:25:48.713Z,12.59
2022-09-28T08:27:20.160Z,12.73
2022-09-28T08:28:52.689Z,12.87
2022-09-28T08:30:45.104Z,12.99
2022-09-28T08:32:35.731Z,13.08
2022-09-28T08:34:27.246Z,13.17
2022-09-28T08:35:59.169Z,13.21
2022-09-28T08:37:55.591Z,13.25
2022-09-28T08:39:46.554Z,13.12
2022-09-28T08:41:33.924Z,13.24
2022-09-28T08:43:46.056Z,13.14
2022-09-28T08:45:44.884Z,12.92
2022-09-28T08:47:52.107Z,12.79
2022-09-28T08:49:37.212Z,12.77
2022-09-28T08:51:34.435Z,12.81
2022-09-28T08:53:21.133Z,12.93
2022-09-28T08:55:19.891Z,13.02
2022-09-28T08:56:52.499Z,13.07
2022-09-28T08:58:26.028Z,13.13
2022-09-28T08:59:59.680Z,13.16
2022-09-28T09:01:42.013Z,13.26
2022-09-28T09:03:19.939Z,13.34
2022-09-28T09:05:06.222Z,13.40
2022-09-28T09:07:15.563Z,13.44
2022-09-28T09:09:00.953Z,13.39
2022-09-28T09:10:53.195Z,13.47
2022-09-28T09:12:35.851Z,13.58
2022-09-28T09:14:16.399Z,13.57
2022-09-28T09:15:49.750Z,13.60
2022-09-28T09:17:37.246Z,13.71
2022-09-28T09:19:26.178Z,13.71
2022-09-28T09:21:16.198Z,13.75
2022-09-28T09:22:53.956Z,13.84
2022-09-28T09:24:29.546Z,14.00
2022-09-28T09:26:04.683Z,14.07
2022-09-28T09:27:45.000Z,14.01
2022-09-28T09:29:22.898Z,13.85
2022-09-28T09:31:06.990Z,13.75
2022-09-28T09:32:55.213Z,13.71
2022-09-28T09:34:37.930Z,13.88
2022-09-28T09:37:02.817Z,14.16
2022-09-28T09:38:55.386Z,14.32
2022-09-28T09:40:52.870Z,14.54
2022-09-28T09:42:51.474Z,14.82
2022-09-28T09:44:57.045Z,15.00
2022-09-28T09:46:54.363Z,15.07
2022-09-28T09:48:46.550Z,14.95
2022-09-28T09:50:25.132Z,14.80
2022-09-28T09:52:00.699Z,14.77
2022-09-28T09:53:38.517Z,14.71
2022-09-28T09:55:14.751Z,14.81
2022-09-28T09:56:58.995Z,14.89
2022-09-28T09:58:52.204Z,14.94
2022-09-28T10:00:26.742Z,15.06
2022-09-28T10:02:22.919Z,15.23
2022-09-28T10:04:00.535Z,15.35
2022-09-28T10:05:34.547Z,15.44
2022-09-28T10:07:09.547Z,15.49
2022-09-28T10:08:44.332Z,15.50
2022-09-28T10:10:20.485Z,15.62
2022-09-28T10:11:54.348Z,15.68
2022-09-28T10:13:26.172Z,15.49
2022-09-28T10:15:02.067Z,15.37
2022-09-28T10:16:34.609Z,15.42
2022-09-28T10:18:11.083Z,15.52
2022-09-28T10:20:01.517Z,15.69
2022-09-28T10:21:54.892Z,15.83
2022-09-28T10:23:33.927Z,15.95
2022-09-28T10:25:08.833Z,16.04
2022-09-28T10:26:41.898Z,16.05
2022-09-28T10:28:19.205Z,15.94
2022-09-28T10:29:52.393Z,15.79
2022-09-28T10:31:34.396Z,15.78
2022-09-28T10:33:26.040Z,15.81
2022-09-28T10:35:11.724Z,15.85
2022-09-28T10:36:49.489Z,15.88
2022-09-28T10:38:22.865Z,15.95
2022-09-28T10:40:02.160Z,16.05
2022-09-28T10:41:48.629Z,16.24
2022-09-28T10:43:23.340Z,16.36
2022-09-28T10:44:59.133Z,16.26
2022-09-28T10:46:41.325Z,15.97
2022-09-28T10:48:19.533Z,15.92
2022-09-28T10:49:52.237Z,15.86
2022-09-28T10:51:40.080Z,15.85
2022-09-28T10:53:17.077Z,15.81
2022-09-28T10:55:32.749Z,15.79
2022-09-28T10:57:24.630Z,15.86
2022-09-28T10:59:01.668Z,15.95
2022-09-28T11:00:49.132Z,15.85
2022-09-28T11:02:25.357Z,15.77
2022-09-28T11:04:01.789Z,15.80
2022-09-28T11:05:33.598Z,15.79
2022-09-28T11:07:17.352Z,15.55
2022-09-28T11:08:49.435Z,15.45
2022-09-28T11:10:26.281Z,15.42
2022-09-28T11:12:04.964Z,15.29
2022-09-28T11:13:54.090Z,15.29
2022-09-28T11:15:30.920Z,15.46
2022-09-28T11:17:23.804Z,15.64
2022-09-28T11:18:56.289Z,15.94
2022-09-28T11:20:34.015Z,16.22
2022-09-28T11:22:20.185Z,16.31
2022-09-28T11:24:01.147Z,16.37
2022-09-28T11:25:33.814Z,16.44
2022-09-28T11:27:18.778Z,16.58
2022-09-28T11:28:51.116Z,16.68
2022-09-28T11:30:30.029Z,16.64
2022-09-28T11:32:21.789Z,16.66
2022-09-28T11:34:15.086Z,16.66
2022-09-28T11:36:05.015Z,16.66
2022-09-28T11:37:52.949Z,16.64
2022-09-28T11:39:43.862Z,16.49
2022-09-28T11:41:27.693Z,16.22
2022-09-28T11:44:44.809Z,16.18
2022-09-28T11:46:25.889Z,16.05
2022-09-28T11:48:01.727Z,16.07
2022-09-28T11:49:38.011Z,16.12
2022-09-28T11:51:15.427Z,16.17
2022-09-28T11:52:50.680Z,16.29
2022-09-28T11:54:26.113Z,16.22
2022-09-28T11:55:59.631Z,16.00
2022-09-28T11:57:36.137Z,15.77
2022-09-28T11:59:12.436Z,15.71
2022-09-28T12:00:51.670Z,15.68
2022-09-28T12:02:29.930Z,15.72
2022-09-28T12:04:12.002Z,15.70
2022-09-28T12:05:47.315Z,15.71
2022-09-28T12:07:23.129Z,15.80
2022-09-28T12:08:56.430Z,15.99
2022-09-28T12:10:51.060Z,16.24
2022-09-28T12:12:32.631Z,16.47
2022-09-28T12:14:10.327Z,16.68
2022-09-28T12:16:13.280Z,16.87
2022-09-28T12:17:41.097Z,17.02
2022-09-28T12:19:16.078Z,17.15
2022-09-28T12:20:49.240Z,17.06
2022-09-28T12:22:23.113Z,17.10
2022-09-28T12:23:56.934Z,16.89
2022-09-28T12:25:33.139Z,16.67
2022-09-28T12:27:06.537Z,16.64
2022-09-28T12:28:39.759Z,16.73
2022-09-28T12:30:14.128Z,16.79
2022-09-28T12:31:52.026Z,16.93
2022-09-28T12:33:23.581Z,17.03
2022-09-28T12:34:58.452Z,17.15
2022-09-28T12:36:35.751Z,17.28
2022-09-28T12:38:20.750Z,17.44
2022-09-28T12:40:03.751Z,17.54
2022-09-28T12:41:40.303Z,17.70
2022-09-28T12:43:28.981Z,17.88
2022-09-28T12:45:09.219Z,17.96
2022-09-28T12:46:48.847Z,18.11
2022-09-28T12:48:36.298Z,18.30
2022-09-28T12:52:15.628Z,18.56
2022-09-28T12:53:56.228Z,18.61
2022-09-28T12:55:36.049Z,18.67
2022-09-28T12:57:18.557Z,18.75
2022-09-28T12:59:00.653Z,18.85
2022-09-28T13:00:36.249Z,18.94
2022-09-28T13:02:28.627Z,18.88
2022-09-28T13:04:12.745Z,18.78
2022-09-28T13:05:59.879Z,18.78
2022-09-28T13:07:37.796Z,18.74
2022-09-28T13:09:16.845Z,18.71
2022-09-28T13:10:52.340Z,18.63
2022-09-28T13:12:26.223Z,18.60
2022-09-28T13:14:04.765Z,18.40
2022-09-28T13:15:40.007Z,18.15
2022-09-28T13:17:17.652Z,17.97
2022-09-28T13:18:53.453Z,17.85
2022-09-28T13:20:32.230Z,17.87
2022-09-28T13:22:15.881Z,17.98
2022-09-28T13:23:50.283Z,18.09
2022-09-28T13:25:23.627Z,18.16
2022-09-28T13:26:56.654Z,18.18
2022-09-28T13:28:29.019Z,18.19
2022-09-28T13:30:02.941Z,18.17
2022-09-28T13:31:37.227Z,18.10
2022-09-28T13:33:16.560Z,18.14
2022-09-28T13:34:50.377Z,18.23
2022-09-28T13:36:35.326Z,18.27
2022-09-28T13:38:25.539Z,18.29
2022-09-28T13:39:58.991Z,18.29
2022-09-28T13:41:32.072Z,18.21
2022-09-28T13:43:09.451Z,18.29
2022-09-28T13:44:48.115Z,18.32
2022-09-28T13:46:28.249Z,18.39
2022-09-28T13:48:05.226Z,18.37
2022-09-28T13:49:41.484Z,18.16
2022-09-28T13:51:22.620Z,18.05
2022-09-28T13:53:01.238Z,17.93
2022-09-28T13:54:41.965Z,17.88
2022-09-28T13:56:22.127Z,17.79
2022-09-28T13:57:56.885Z,17.57
2022-09-28T13:59:29.678Z,17.40
2022-09-28T14:01:04.159Z,17.30
2022-09-28T14:02:37.002Z,17.19
2022-09-28T14:04:13.877Z,17.21
2022-09-28T14:05:47.264Z,17.23
2022-09-28T14:07:20.451Z,17.21
2022-09-28T14:09:21.821Z,17.14
2022-09-28T14:10:54.646Z,17.14
2022-09-28T14:12:43.195Z,17.20
2022-09-28T14:14:25.517Z,17.13
2022-09-28T14:16:19.679Z,17.02
2022-09-28T14:17:59.098Z,17.18
2022-09-28T14:19:33.091Z,17.42
2022-09-28T14:21:22.921Z,17.65
2022-09-28T14:23:03.567Z,17.94
2022-09-28T14:24:43.771Z,18.23
2022-09-28T14:26:25.941Z,18.50
2022-09-28T14:28:04.867Z,18.72
2022-09-28T14:29:37.239Z,18.87
2022-09-28T14:31:14.156Z,18.75
2022-09-28T14:32:49.819Z,18.79
2022-09-28T14:34:26.978Z,18.81
2022-09-28T14:36:01.950Z,18.60
2022-09-28T14:37:53.628Z,18.53
2022-09-28T14:39:46.423Z,18.51
2022-09-28T14:41:29.647Z,18.52
2022-09-28T14:43:25.176Z,18.42
2022-09-28T14:45:15.212Z,18.25
2022-09-28T14:46:47.627Z,17.96
2022-09-28T14:48:20.369Z,17.98
2022-09-28T14:50:00.127Z,17.94
2022-09-28T14:51:44.389Z,17.91
2022-09-28T14:53:20.155Z,18.00
2022-09-28T14:54:53.524Z,17.97
2022-09-28T14:56:29.217Z,17.95
2022-09-28T14:58:04.662Z,17.98
2022-09-28T14:59:42.959Z,17.98
2022-09-28T15:01:17.149Z,17.95
2022-09-28T15:02:49.885Z,17.96
2022-09-28T15:04:23.814Z,17.98
2022-09-28T15:05:55.558Z,17.96
2022-09-28T15:07:29.233Z,17.95
2022-09-28T15:09:01.986Z,17.92
2022-09-28T15:10:35.461Z,17.96
2022-09-28T15:12:15.017Z,17.95
2022-09-28T15:13:46.618Z,17.93
2022-09-28T15:15:25.779Z,17.89
2022-09-28T15:16:57.782Z,17.82
2022-09-28T15:18:57.349Z,17.74
2022-09-28T15:20:30.414Z,17.58
2022-09-28T15:22:01.957Z,17.51
2022-09-28T15:23:34.690Z,17.50
2022-09-28T15:25:13.295Z,17.54
2022-09-28T15:26:48.003Z,17.45
2022-09-28T15:28:22.152Z,17.10
2022-09-28T15:29:57.848Z,16.63
2022-09-28T15:31:34.325Z,16.60
2022-09-28T15:33:24.446Z,16.56
2022-09-28T15:34:57.252Z,16.43
2022-09-28T15:36:29.851Z,16.11
2022-09-28T15:38:01.401Z,15.50
2022-09-28T15:39:34.145Z,15.01
2022-09-28T15:41:07.140Z,14.69
2022-09-28T15:42:38.773Z,14.60
2022-09-28T15:44:20.959Z,14.45
2022-09-28T15:46:01.511Z,14.21
2022-09-28T15:47:35.130Z,14.18
2022-09-28T15:49:08.466Z,13.93
2022-09-28T15:50:45.748Z,13.69
2022-09-28T15:52:22.815Z,13.35
2022-09-28T15:53:58.181Z,13.17
2022-09-28T15:55:31.451Z,13.11
2022-09-28T15:57:03.027Z,13.05
2022-09-28T15:58:34.464Z,12.99
2022-09-28T16:00:21.893Z,13.01
2022-09-28T16:02:05.182Z,13.00
2022-09-28T16:03:40.944Z,13.02
2022-09-28T16:05:29.567Z,13.07
2022-09-28T16:07:20.162Z,13.09
2022-09-28T16:08:51.684Z,13.11
2022-09-28T16:10:33.606Z,13.25
2022-09-28T16:12:09.102Z,13.31
2022-09-28T16:13:46.303Z,13.20
2022-09-28T16:15:20.563Z,13.16
2022-09-28T16:16:52.419Z,12.99
2022-09-28T16:18:25.470Z,12.98
2022-09-28T16:19:58.449Z,12.98
2022-09-28T16:21:42.582Z,12.79
2022-09-28T16:23:19.419Z,12.64
2022-09-28T16:24:54.447Z,12.47
2022-09-28T16:26:29.780Z,12.35
2022-09-28T16:28:01.307Z,12.36
2022-09-28T16:29:36.549Z,12.40
2022-09-28T16:31:24.098Z,12.39
2022-09-28T16:32:56.829Z,12.30
2022-09-28T16:34:30.124Z,12.26
2022-09-28T16:36:05.094Z,12.30
2022-09-28T16:37:36.869Z,12.37
2022-09-28T16:39:11.665Z,12.40
2022-09-28T16:40:46.090Z,12.39
2022-09-28T16:42:17.654Z,12.33
2022-09-28T16:43:54.652Z,12.33
2022-09-28T16:45:26.490Z,12.34
2022-09-28T16:47:00.124Z,12.30
2022-09-28T16:48:33.479Z,12.27
2022-09-28T16:50:06.412Z,12.24
2022-09-28T16:51:40.108Z,12.31
2022-09-28T16:53:31.857Z,12.42
2022-09-28T16:55:38.746Z,12.59
2022-09-28T16:57:07.852Z,12.80
2022-09-28T16:58:39.313Z,12.76
2022-09-28T17:00:14.418Z,12.70
2022-09-28T17:01:45.878Z,12.60
2022-09-28T17:03:18.518Z,12.66
2022-09-28T17:04:50.213Z,12.53
2022-09-28T17:06:25.185Z,12.53
2022-09-28T17:07:59.665Z,12.66
2022-09-28T17:09:31.106Z,12.65
2022-09-28T17:11:14.896Z,12.65
2022-09-28T17:12:49.313Z,12.81
2022-09-28T17:14:23.330Z,12.88
2022-09-28T17:15:54.849Z,12.97
2022-09-28T17:17:29.803Z,13.05
2022-09-28T17:19:01.361Z,13.16
2022-09-28T17:20:33.760Z,13.29
2022-09-28T17:22:06.674Z,13.43
2022-09-28T17:23:39.542Z,13.49
2022-09-28T17:25:12.774Z,13.58
2022-09-28T17:26:45.642Z,13.66
2022-09-28T17:28:19.439Z,13.73
2022-09-28T17:29:51.358Z,13.73
2022-09-28T17:31:23.002Z,13.77
2022-09-28T17:32:54.524Z,13.78
2022-09-28T17:34:26.065Z,13.77
2022-09-28T17:36:00.002Z,13.73
2022-09-28T17:37:34.398Z,13.72
2022-09-28T17:39:10.499Z,13.66
2022-09-28T17:40:42.483Z,13.62
2022-09-28T17:42:13.992Z,13.59
2022-09-28T17:43:45.670Z,13.61
2022-09-28T17:45:18.129Z,13.62
2022-09-28T17:46:51.174Z,13.60
2022-09-28T17:48:23.293Z,13.63
2022-09-28T17:49:54.756Z,13.61
2022-09-28T17:51:27.022Z,13.62
2022-09-28T17:52:59.918Z,13.61
2022-09-28T17:54:33.690Z,13.61
2022-09-28T17:56:05.390Z,13.59
2022-09-28T17:57:36.869Z,13.55
2022-09-28T17:59:10.678Z,13.54
2022-09-28T18:00:42.321Z,13.53
2022-09-28T18:02:14.034Z,13.55
2022-09-28T18:03:45.682Z,13.58
2022-09-28T18:05:19.458Z,13.62
2022-09-28T18:06:51.328Z,13.62
2022-09-28T18:08:22.806Z,13.57
2022-09-28T18:09:58.263Z,13.54
2022-09-28T18:11:30.051Z,13.51
2022-09-28T18:13:01.526Z,13.51
2022-09-28T18:14:33.081Z,13.52
2022-09-28T18:16:04.954Z,13.53
2022-09-28T18:17:36.671Z,13.54
2022-09-28T18:19:08.161Z,13.54
2022-09-28T18:20:41.235Z,13.53
2022-09-28T18:22:12.722Z,13.53
2022-09-28T18:23:44.164Z,13.52
2022-09-28T18:25:17.162Z,13.47
2022-09-28T18:26:48.627Z,13.41
2022-09-28T18:28:21.517Z,13.36
2022-09-28T18:29:53.033Z,13.34
2022-09-28T18:31:24.715Z,13.32
2022-09-28T18:32:56.251Z,13.32
2022-09-28T18:34:27.711Z,13.26
2022-09-28T18:35:59.167Z,13.21
2022-09-28T18:37:30.708Z,13.17
2022-09-28T18:39:02.257Z,13.14
2022-09-28T18:40:35.626Z,13.08
2022-09-28T18:42:07.221Z,13.02
2022-09-28T18:43:38.696Z,12.97
2022-09-28T18:45:11.193Z,12.95
2022-09-28T18:46:42.879Z,12.93
2022-09-28T18:48:14.477Z,12.93
2022-09-28T18:49:46.865Z,12.92
2022-09-28T18:51:19.439Z,12.91
2022-09-28T18:52:50.988Z,12.87
2022-09-28T18:54:22.700Z,12.84
2022-09-28T18:55:57.542Z,12.84
2022-09-28T18:57:28.979Z,12.85
2022-09-28T18:59:00.556Z,12.87
2022-09-28T19:00:32.148Z,12.90
2022-09-28T19:02:03.833Z,12.92
2022-09-28T19:03:35.601Z,12.95
2022-09-28T19:05:07.396Z,12.94
2022-09-28T19:06:44.283Z,12.93
2022-09-28T19:08:15.833Z,12.90
2022-09-28T19:09:47.325Z,12.87
2022-09-28T19:11:20.180Z,12.86
2022-09-28T19:12:52.035Z,12.84
2022-09-28T19:14:23.554Z,12.80
2022-09-28T19:15:55.334Z,12.78
2022-09-28T19:17:26.902Z,12.79
2022-09-28T19:18:58.799Z,12.79
2022-09-28T19:20:32.132Z,12.77
2022-09-28T19:22:03.778Z,12.78
2022-09-28T19:23:35.636Z,12.73
2022-09-28T19:25:08.279Z,12.71
2022-09-28T19:26:41.173Z,12.70
2022-09-28T19:28:12.636Z,12.68
2022-09-28T19:29:44.155Z,12.66
2022-09-28T19:31:16.375Z,12.61
2022-09-28T19:32:47.829Z,12.56
2022-09-28T19:34:19.656Z,12.49
2022-09-28T19:35:55.305Z,12.45
2022-09-28T19:37:27.108Z,12.41
2022-09-28T19:39:02.527Z,12.41
2022-09-28T19:40:36.613Z,12.42
2022-09-28T19:42:09.473Z,12.43
2022-09-28T19:43:43.631Z,12.45
2022-09-28T19:45:15.154Z,12.44
2022-09-28T19:46:46.644Z,12.42
2022-09-28T19:48:18.370Z,12.40
2022-09-28T19:49:50.047Z,12.36
2022-09-28T19:51:21.998Z,12.33
2022-09-28T19:52:53.485Z,12.29
2022-09-28T19:54:26.446Z,12.27
2022-09-28T19:55:58.826Z,12.24
2022-09-28T19:57:32.573Z,12.22
2022-09-28T19:59:04.338Z,12.19
2022-09-28T20:00:37.024Z,12.18
2022-09-28T20:02:10.267Z,12.18
2022-09-28T20:03:41.897Z,12.18
2022-09-28T20:05:13.445Z,12.17
2022-09-28T20:06:45.131Z,12.15
2022-09-28T20:08:16.768Z,12.14
2022-09-28T20:09:48.391Z,12.12
2022-09-28T20:11:20.174Z,12.10
2022-09-28T20:12:53.090Z,12.09
2022-09-28T20:14:25.965Z,12.06
2022-09-28T20:16:02.927Z,12.04
2022-09-28T20:17:35.431Z,12.02
2022-09-28T20:19:07.680Z,11.99
2022-09-28T20:20:39.485Z,11.97
2022-09-28T20:22:12.107Z,11.97
2022-09-28T20:23:44.520Z,11.95
2022-09-28T20:25:16.022Z,11.92
2022-09-28T20:26:49.466Z,11.89
2022-09-28T20:28:22.287Z,11.88
2022-09-28T20:29:54.232Z,11.85
2022-09-28T20:31:25.845Z,11.83
2022-09-28T20:32:57.421Z,11.83
2022-09-28T20:34:29.061Z,11.82
2022-09-28T20:36:04.332Z,11.82
2022-09-28T20:37:35.781Z,11.83
2022-09-28T20:39:07.393Z,11.84
2022-09-28T20:40:41.323Z,11.85
2022-09-28T20:42:15.499Z,11.86
2022-09-28T20:43:50.871Z,11.84
2022-09-28T20:45:22.593Z,11.82
2022-09-28T20:46:54.142Z,11.80
2022-09-28T20:48:25.750Z,11.78
2022-09-28T20:49:57.316Z,11.75
2022-09-28T20:51:28.789Z,11.74
2022-09-28T20:53:00.426Z,11.73
2022-09-28T20:54:32.001Z,11.74
2022-09-28T20:56:04.989Z,11.73